Time;durP1;ratioP1;P1;durP2;ratioP2;P2;SDS_P1;SDS_P2;PMS_P1;PMS_P2;Temp;Humidity;BMP_temperature;BMP_pressure;BME280_temperature;BME280_humidity;BME280_pressure;Samples;Min_cycle;Max_cycle;Signal;HPM_P1;HPM_P2
2023/08/01 00:00:51;;;;;;;15.95;8.90;;;;;;;-145.63;54.84;38838.47;5046902;28;20029;-69
2023/08/01 00:03:16;;;;;;;14.63;9.15;;;;;;;-145.63;55.03;38838.47;5032845;28;20100;-70
2023/08/01 00:05:45;;;;;;;15.75;9.40;;;;;;;-145.63;55.06;38893.22;5034820;28;20137;-70
2023/08/01 00:08:14;;;;;;;13.05;8.90;;;;;;;-145.63;54.88;38815.00;5034419;28;20036;-69
2023/08/01 00:10:40;;;;;;;13.65;8.70;;;;;;;-145.63;55.01;38848.25;5043473;28;20026;-68
2023/08/01 00:13:07;;;;;;;13.07;9.25;;;;;;;-145.63;54.84;38879.53;5027856;28;20459;-70
2023/08/01 00:15:33;;;;;;;13.73;9.13;;;;;;;-145.63;54.76;38826.72;5033167;28;20100;-69
2023/08/01 00:17:59;;;;;;;11.73;9.15;;;;;;;-145.63;54.91;38873.66;5027523;28;20085;-68
2023/08/01 00:20:25;;;;;;;14.13;8.70;;;;;;;-145.63;54.86;38871.72;5036650;28;20341;-69
2023/08/01 00:22:50;;;;;;;14.23;9.05;;;;;;;-145.63;54.97;38858.03;5046174;28;20036;-69
2023/08/01 00:25:17;;;;;;;13.25;9.45;;;;;;;-145.63;54.99;38840.44;5032466;28;20025;-69
2023/08/01 00:27:45;;;;;;;14.15;9.35;;;;;;;-145.63;55.22;38867.81;5043009;28;20044;-69
2023/08/01 00:30:10;;;;;;;15.70;9.32;;;;;;;-145.63;55.16;38879.53;5046443;28;20025;-70
2023/08/01 00:32:37;;;;;;;12.88;8.75;;;;;;;-145.63;54.97;38846.28;5045979;28;20022;-70
2023/08/01 00:35:04;;;;;;;15.38;9.30;;;;;;;-145.63;55.10;38863.88;5040083;28;20043;-69
2023/08/01 00:37:30;;;;;;;15.68;9.70;;;;;;;-145.63;55.02;38840.44;5027722;28;20052;-68
2023/08/01 00:39:55;;;;;;;15.23;9.00;;;;;;;-145.63;55.12;38863.88;5046381;28;20033;-68
2023/08/01 00:42:21;;;;;;;12.45;8.80;;;;;;;-145.63;55.06;38859.97;5044317;28;20047;-69
2023/08/01 00:44:48;;;;;;;15.35;9.10;;;;;;;-145.63;55.39;38871.72;5033782;28;20044;-69
2023/08/01 00:47:14;;;;;;;16.80;8.85;;;;;;;-145.63;55.43;38879.53;5038464;28;20045;-67
2023/08/01 00:49:40;;;;;;;16.00;9.35;;;;;;;-145.63;55.59;38877.56;5042035;28;20033;-69
2023/08/01 00:52:08;;;;;;;12.85;8.48;;;;;;;-145.63;55.48;38873.66;5045754;28;20022;-68
2023/08/01 00:54:36;;;;;;;13.95;9.60;;;;;;;-145.63;55.24;38869.75;5027546;28;20104;-68
2023/08/01 00:57:03;;;;;;;17.58;9.48;;;;;;;-145.63;55.32;38852.16;5040135;28;20056;-68
2023/08/01 00:59:29;;;;;;;19.73;9.73;;;;;;;-145.63;55.55;38879.53;5036240;28;20037;-69
2023/08/01 01:01:55;;;;;;;11.45;8.75;;;;;;;-145.63;55.42;38875.63;5030393;28;20025;-69
2023/08/01 01:04:21;;;;;;;16.55;9.48;;;;;;;-145.63;55.20;38901.03;5044590;28;20045;-68
2023/08/01 01:06:57;;;;;;;16.85;9.70;;;;;;;-145.63;55.45;38889.31;5025743;28;20040;-69
2023/08/01 01:09:23;;;;;;;13.18;9.30;;;;;;;-145.63;55.89;38895.19;5042450;28;20033;-70
2023/08/01 01:11:48;;;;;;;16.98;10.05;;;;;;;-145.63;55.55;38701.59;5033336;28;20029;-69
2023/08/01 01:14:14;;;;;;;19.90;9.23;;;;;;;-145.63;55.52;38942.13;5034251;28;20036;-70
2023/08/01 01:16:40;;;;;;;15.13;8.85;;;;;;;-145.63;55.35;38903.00;5033956;28;20057;-69
2023/08/01 01:19:08;;;;;;;15.48;9.82;;;;;;;-145.63;55.36;38889.31;5029190;28;20037;-69
2023/08/01 01:21:39;;;;;;;12.68;9.23;;;;;;;-145.63;55.72;38912.78;5043409;28;20057;-69
2023/08/01 01:24:06;;;;;;;16.38;9.35;;;;;;;-145.63;55.66;38869.75;5042309;28;20261;-69
2023/08/01 01:26:33;;;;;;;15.85;9.40;;;;;;;-145.63;55.65;38893.22;5035400;28;20219;-69
2023/08/01 01:29:01;;;;;;;17.50;9.50;;;;;;;-145.63;55.49;38887.34;5030314;28;20287;-69
2023/08/01 01:31:28;;;;;;;15.60;9.73;;;;;;;-145.63;55.67;38871.72;5044859;28;20025;-70
2023/08/01 01:33:54;;;;;;;13.75;8.77;;;;;;;-145.63;55.68;38903.00;5044312;28;20068;-68
2023/08/01 01:36:20;;;;;;;20.38;10.10;;;;;;;-145.63;55.61;38904.97;5028893;28;20029;-69
2023/08/01 01:38:46;;;;;;;14.35;9.18;;;;;;;-145.63;55.95;38672.25;5034674;28;20094;-69
2023/08/01 01:41:12;;;;;;;16.55;9.48;;;;;;;-145.63;55.77;38893.22;5027403;28;20030;-69
2023/08/01 01:43:37;;;;;;;19.95;11.95;;;;;;;-145.63;55.88;38926.47;5032140;28;20082;-70
2023/08/01 01:46:04;;;;;;;17.17;10.82;;;;;;;-145.63;55.99;38891.28;5045175;28;20041;-69
2023/08/01 01:48:29;;;;;;;14.73;9.73;;;;;;;-145.63;55.56;38895.19;5027578;28;20180;-68
2023/08/01 01:50:55;;;;;;;15.75;9.55;;;;;;;-145.63;55.78;38899.09;5037529;28;20033;-69
2023/08/01 01:53:21;;;;;;;12.32;8.88;;;;;;;-145.63;55.67;38908.88;5036768;28;20025;-69
2023/08/01 01:55:46;;;;;;;21.27;10.15;;;;;;;-145.63;55.89;38903.00;5026691;28;20052;-69
2023/08/01 01:58:12;;;;;;;17.30;10.25;;;;;;;-145.63;55.82;38891.28;5044455;28;20079;-70
2023/08/01 02:00:38;;;;;;;16.92;10.63;;;;;;;-145.63;55.84;38940.16;5026150;28;20033;-69
2023/08/01 02:03:03;;;;;;;16.95;10.50;;;;;;;-145.63;56.05;38901.03;5037970;28;20046;-69
2023/08/01 02:05:29;;;;;;;19.60;10.60;;;;;;;-145.63;56.15;38903.00;5035626;28;20037;-69
2023/08/01 02:07:55;;;;;;;16.70;9.57;;;;;;;-145.63;55.97;38906.91;5028752;28;20067;-68
2023/08/01 02:10:21;;;;;;;14.13;10.00;;;;;;;-145.63;55.84;38885.41;5038236;28;20072;-69
2023/08/01 02:12:47;;;;;;;15.18;9.15;;;;;;;-145.63;56.23;38918.66;5047135;28;20057;-69
2023/08/01 02:15:13;;;;;;;14.30;9.25;;;;;;;-145.63;56.07;38934.28;5030149;28;20025;-69
2023/08/01 02:17:39;;;;;;;15.52;9.63;;;;;;;-145.63;56.25;38920.59;5032902;28;20049;-68
2023/08/01 02:20:26;;;;;;;19.10;10.00;;;;;;;-145.63;56.32;38953.84;5028892;28;20034;-68
2023/08/01 02:22:52;;;;;;;15.13;9.70;;;;;;;-145.63;56.04;38940.16;5027472;28;20330;-68
2023/08/01 02:25:17;;;;;;;14.38;9.07;;;;;;;-145.63;56.41;38922.56;5043134;28;20033;-69
2023/08/01 02:27:43;;;;;;;14.18;9.13;;;;;;;-145.63;56.10;38920.59;5025153;28;20032;-69
2023/08/01 02:30:09;;;;;;;12.75;9.25;;;;;;;-145.63;56.63;38936.25;5033053;28;20045;-68
2023/08/01 02:32:36;;;;;;;16.25;9.15;;;;;;;-145.63;56.53;38918.66;5039284;28;20093;-67
2023/08/01 02:35:02;;;;;;;14.55;9.30;;;;;;;-145.63;56.84;38906.91;5037686;28;20041;-67
2023/08/01 02:37:32;;;;;;;17.20;8.63;;;;;;;-145.63;56.24;38910.81;5039224;28;20262;-67
2023/08/01 02:39:57;;;;;;;14.98;9.32;;;;;;;-145.63;56.49;38926.47;5026339;28;20026;-68
2023/08/01 02:42:23;;;;;;;15.30;8.98;;;;;;;-145.63;56.36;38899.09;5026813;28;20052;-68
2023/08/01 02:44:49;;;;;;;13.10;8.75;;;;;;;-145.63;56.47;38949.94;5027357;28;20018;-67
2023/08/01 02:47:14;;;;;;;13.25;8.82;;;;;;;-145.63;56.46;38899.09;5031951;28;20030;-68
2023/08/01 02:49:40;;;;;;;15.35;8.55;;;;;;;-145.63;56.12;38934.28;5023843;28;20318;-68
2023/08/01 02:52:06;;;;;;;14.80;9.20;;;;;;;-145.63;56.13;38918.66;5023684;28;20029;-68
2023/08/01 02:54:31;;;;;;;13.75;8.88;;;;;;;-145.63;56.34;38869.75;5040539;28;20132;-68
2023/08/01 02:56:57;;;;;;;15.93;8.90;;;;;;;-145.63;56.07;38858.03;5036315;28;20314;-69
2023/08/01 02:59:23;;;;;;;12.75;8.30;;;;;;;-145.63;56.53;38897.13;5036088;28;20037;-69
2023/08/01 03:01:49;;;;;;;13.23;8.25;;;;;;;-145.63;56.34;38885.41;5026470;28;20047;-69
2023/08/01 03:04:15;;;;;;;11.13;8.55;;;;;;;-145.63;56.55;38883.44;5043224;28;20091;-69
2023/08/01 03:06:41;;;;;;;14.70;9.25;;;;;;;-145.63;56.32;38840.44;5038601;28;20196;-69
2023/08/01 03:09:09;;;;;;;12.70;9.20;;;;;;;-145.63;56.28;38899.09;5023421;28;20032;-69
2023/08/01 03:11:38;;;;;;;16.15;9.70;;;;;;;-145.63;56.47;38889.31;5023575;28;20028;-70
2023/08/01 03:14:06;;;;;;;15.32;8.80;;;;;;;-145.63;56.15;38897.13;5027905;28;20306;-70
2023/08/01 03:16:33;;;;;;;16.60;9.32;;;;;;;-145.63;56.40;38842.38;5042954;28;20072;-70
2023/08/01 03:19:04;;;;;;;15.32;8.68;;;;;;;-145.63;56.06;38842.38;5023346;28;20072;-69
2023/08/01 03:21:32;;;;;;;13.05;8.52;;;;;;;-145.63;55.89;38867.81;5039611;28;20029;-69
2023/08/01 03:23:58;;;;;;;15.38;9.25;;;;;;;-145.63;55.95;38856.06;5031249;28;20330;-70
2023/08/01 03:26:23;;;;;;;13.27;9.02;;;;;;;-145.63;55.84;38805.22;5023645;28;20034;-70
2023/08/01 03:28:49;;;;;;;15.43;8.68;;;;;;;-145.63;55.63;38836.50;5025862;28;20049;-69
2023/08/01 03:31:15;;;;;;;15.80;9.82;;;;;;;-145.63;55.78;38813.03;5041817;28;20029;-70
2023/08/01 03:33:41;;;;;;;13.38;9.30;;;;;;;-145.63;55.78;38836.50;5042772;28;20025;-68
2023/08/01 03:36:06;;;;;;;14.90;9.13;;;;;;;-145.63;55.51;38779.81;5043254;28;20072;-69
2023/08/01 03:38:32;;;;;;;14.52;8.88;;;;;;;-145.63;55.59;38787.63;5034439;28;20346;-70
2023/08/01 03:40:58;;;;;;;17.15;10.00;;;;;;;-145.63;55.26;38771.97;5026721;28;20319;-69
2023/08/01 03:43:23;;;;;;;17.23;10.27;;;;;;;-145.63;55.20;38807.19;5023292;28;20030;-72
2023/08/01 03:45:51;;;;;;;17.45;9.90;;;;;;;-145.63;55.51;38766.13;5023327;28;20202;-71
2023/08/01 03:48:16;;;;;;;19.05;10.73;;;;;;;-145.63;55.14;38760.25;5037558;28;20076;-70
2023/08/01 03:50:42;;;;;;;19.65;10.23;;;;;;;-145.63;54.73;38756.34;5033399;28;20021;-70
2023/08/01 03:53:08;;;;;;;16.13;10.25;;;;;;;-145.63;54.22;38674.22;5027905;28;20029;-69
2023/08/01 03:55:33;;;;;;;17.83;10.93;;;;;;;-145.63;52.77;38640.97;5033495;28;20033;-69
2023/08/01 03:57:59;;;;;;;18.02;10.70;;;;;;;-145.63;53.40;38629.22;5043038;28;20192;-69
2023/08/01 04:00:25;;;;;;;25.20;11.25;;;;;;;-145.63;53.23;38613.59;5027488;28;20192;-70
2023/08/01 04:02:50;;;;;;;17.67;10.18;;;;;;;-145.63;53.33;38566.66;5022800;28;20046;-70
2023/08/01 04:05:17;;;;;;;18.10;9.68;;;;;;;-145.63;53.13;38592.09;5022833;28;20306;-73
2023/08/01 04:07:42;;;;;;;16.77;10.95;;;;;;;-145.63;52.21;38607.72;5024137;28;20374;-70
2023/08/01 04:10:08;;;;;;;25.67;12.52;;;;;;;-145.63;51.27;38594.03;5042984;28;20059;-71
2023/08/01 04:12:34;;;;;;;20.95;11.73;;;;;;;-145.63;52.03;38566.66;5026222;28;20037;-70
2023/08/01 04:15:00;;;;;;;20.08;10.93;;;;;;;-145.63;51.87;38603.81;5022873;28;20030;-69
2023/08/01 04:17:26;;;;;;;19.70;11.07;;;;;;;-145.63;51.29;38592.09;5030165;28;20152;-69
2023/08/01 04:19:53;;;;;;;19.45;11.77;;;;;;;-145.63;50.68;38582.31;5040446;28;20022;-70
2023/08/01 04:22:18;;;;;;;22.00;12.30;;;;;;;-145.63;50.69;38525.59;5023001;28;20072;-70
2023/08/01 04:24:44;;;;;;;20.13;11.93;;;;;;;-145.63;50.51;38537.34;5041020;28;20029;-70
2023/08/01 04:27:10;;;;;;;21.98;11.55;;;;;;;-145.63;49.48;38556.88;5033117;28;20050;-69
2023/08/01 04:29:35;;;;;;;16.35;10.75;;;;;;;-145.63;49.29;38574.47;5034712;28;20052;-69
2023/08/01 04:32:01;;;;;;;20.08;11.32;;;;;;;-145.63;49.02;38535.38;5046223;28;20037;-69
2023/08/01 04:34:27;;;;;;;17.15;10.95;;;;;;;-145.63;49.17;38525.59;5046240;28;20128;-70
2023/08/01 04:36:53;;;;;;;15.38;10.68;;;;;;;-145.63;48.93;38521.69;5027186;28;20084;-70
2023/08/01 04:39:18;;;;;;;18.85;10.20;;;;;;;-145.63;49.29;38511.91;5040570;28;20030;-70
2023/08/01 04:41:44;;;;;;;18.60;10.35;;;;;;;-145.63;48.99;38468.91;5041934;28;20310;-70
2023/08/01 04:44:10;;;;;;;15.88;9.70;;;;;;;-145.63;48.99;38484.53;5041302;28;20033;-70
2023/08/01 04:46:35;;;;;;;13.57;9.20;;;;;;;-145.63;48.74;38509.97;5026084;28;20029;-71
2023/08/01 04:49:01;;;;;;;11.60;9.23;;;;;;;-145.63;48.52;38441.53;5045939;28;20033;-70
2023/08/01 04:51:27;;;;;;;18.25;9.70;;;;;;;-145.63;48.73;38453.25;5046015;28;20029;-71
2023/08/01 04:53:53;;;;;;;19.17;10.20;;;;;;;-145.63;48.02;38441.53;5035175;28;20040;-71
2023/08/01 04:56:19;;;;;;;14.93;10.13;;;;;;;-145.63;47.55;38390.69;5025967;28;20048;-70
2023/08/01 04:58:44;;;;;;;13.93;9.60;;;;;;;-145.63;47.05;38402.41;5026733;28;20466;-70
2023/08/01 05:01:10;;;;;;;13.63;8.68;;;;;;;-145.63;47.05;38390.69;5045416;28;20093;-70
2023/08/01 05:03:35;;;;;;;15.35;9.00;;;;;;;-145.63;46.76;38386.78;5029257;28;20045;-70
2023/08/01 05:06:01;;;;;;;12.45;8.27;;;;;;;-145.63;46.85;38365.25;5036249;28;20029;-71
2023/08/01 05:08:27;;;;;;;13.50;8.13;;;;;;;-145.63;46.67;38347.66;5045934;28;20031;-71
2023/08/01 05:10:52;;;;;;;16.38;8.07;;;;;;;-145.63;46.11;38294.88;5043111;28;20021;-71
2023/08/01 05:13:18;;;;;;;15.77;7.80;;;;;;;-145.63;45.38;38308.56;5025792;28;20018;-70
2023/08/01 05:15:47;;;;;;;10.75;7.07;;;;;;;-145.63;46.20;38273.38;5025527;28;20022;-72
2023/08/01 05:18:14;;;;;;;13.80;6.65;;;;;;;-145.63;43.70;38230.34;5037562;28;20210;-69
2023/08/01 05:20:40;;;;;;;14.57;7.00;;;;;;;-145.63;44.99;38240.13;5036796;28;20057;-70
2023/08/01 05:23:05;;;;;;;15.80;6.55;;;;;;;-145.63;44.94;38187.34;5025298;28;20026;-70
2023/08/01 05:25:31;;;;;;;11.82;6.90;;;;;;;-145.63;44.94;38214.72;5025389;28;20025;-70
2023/08/01 05:27:57;;;;;;;9.88;5.82;;;;;;;-145.63;42.83;38238.16;5044409;28;20035;-70
2023/08/01 05:30:23;;;;;;;7.80;5.45;;;;;;;-145.63;42.55;38185.38;5034731;28;20021;-70
2023/08/01 05:32:49;;;;;;;6.68;5.00;;;;;;;-145.63;42.35;38201.03;5044523;28;20100;-69
2023/08/01 05:35:14;;;;;;;10.10;5.50;;;;;;;-145.63;42.31;38208.84;5038597;28;20026;-70
2023/08/01 05:37:40;;;;;;;6.18;4.00;;;;;;;-145.63;41.17;38132.59;5025004;28;20022;-70
2023/08/01 05:40:06;;;;;;;7.63;5.28;;;;;;;-145.63;41.31;38089.56;5045003;28;20072;-70
2023/08/01 05:42:32;;;;;;;5.57;4.65;;;;;;;-145.63;41.30;38011.38;5040381;28;20033;-70
2023/08/01 05:44:58;;;;;;;9.45;5.95;;;;;;;-145.63;40.92;37991.81;5034291;28;20029;-70
2023/08/01 05:47:24;;;;;;;9.38;6.05;;;;;;;-145.63;41.61;37987.91;5030926;28;20026;-70
2023/08/01 05:49:50;;;;;;;10.55;5.35;;;;;;;-145.63;39.27;37954.69;5031182;28;20041;-69
2023/08/01 05:52:15;;;;;;;5.38;4.63;;;;;;;-145.63;41.29;37933.16;5044480;28;20087;-70
2023/08/01 05:54:41;;;;;;;11.02;5.68;;;;;;;-145.63;41.01;37944.91;5028559;28;20030;-70
2023/08/01 05:57:08;;;;;;;11.32;5.13;;;;;;;-145.63;41.20;37964.44;5036204;28;20049;-70
2023/08/01 05:59:33;;;;;;;8.88;5.07;;;;;;;-145.63;40.96;37964.44;5037209;28;20097;-70
2023/08/01 06:01:59;;;;;;;11.30;5.28;;;;;;;-145.63;41.25;37989.88;5026994;28;20025;-70
2023/08/01 06:04:25;;;;;;;9.48;5.90;;;;;;;-145.63;41.43;38003.56;5044830;28;20160;-69
2023/08/01 06:06:50;;;;;;;7.95;5.50;;;;;;;-145.63;41.51;37995.72;5026325;28;20038;-71
2023/08/01 06:09:16;;;;;;;11.25;6.32;;;;;;;-145.63;41.31;37999.66;5024548;28;20370;-71
2023/08/01 06:11:42;;;;;;;9.02;6.13;;;;;;;-145.63;41.57;37970.31;5032462;28;20084;-72
2023/08/01 06:14:09;;;;;;;10.70;7.15;;;;;;;-145.63;40.77;37923.41;5044183;28;20380;-72
2023/08/01 06:16:35;;;;;;;9.73;6.40;;;;;;;-145.63;39.05;37939.03;5043867;28;20037;-72
2023/08/01 06:19:01;;;;;;;15.75;6.57;;;;;;;-145.63;40.15;37929.25;5025039;28;20075;-72
2023/08/01 06:21:27;;;;;;;9.07;6.60;;;;;;;-145.63;39.69;37958.59;5024291;28;20040;-72
2023/08/01 06:23:52;;;;;;;23.05;15.48;;;;;;;-145.63;40.02;37888.22;5034087;28;20018;-71
2023/08/01 06:26:18;;;;;;;15.55;8.52;;;;;;;-145.63;38.71;37982.03;5044019;28;20294;-70
2023/08/01 06:28:44;;;;;;;9.88;6.90;;;;;;;-145.63;37.74;37909.72;5038830;28;20097;-70
2023/08/01 06:31:09;;;;;;;8.55;5.60;;;;;;;-145.63;38.31;37884.28;5034547;28;20108;-70
2023/08/01 06:33:35;;;;;;;8.30;5.55;;;;;;;-145.63;38.49;37882.34;5043661;28;20093;-70
2023/08/01 06:36:01;;;;;;;13.25;10.02;;;;;;;-145.63;37.91;37903.84;5042820;28;20033;-70
2023/08/01 06:38:27;;;;;;;12.85;11.00;;;;;;;-145.63;38.50;37876.47;5038023;28;20025;-70
2023/08/01 06:40:52;;;;;;;9.38;6.93;;;;;;;-145.63;38.50;37851.06;5028465;28;20029;-69
2023/08/01 06:43:18;;;;;;;10.45;7.10;;;;;;;-145.63;38.64;37847.16;5039787;28;20052;-70
2023/08/01 06:45:44;;;;;;;9.13;6.50;;;;;;;-145.63;37.78;37847.16;5027011;28;20033;-70
2023/08/01 06:48:09;;;;;;;10.43;7.30;;;;;;;-145.63;38.54;37786.53;5023185;28;20072;-71
2023/08/01 06:50:35;;;;;;;13.50;6.32;;;;;;;-145.63;37.99;37806.09;5030591;28;20021;-71
2023/08/01 06:53:01;;;;;;;7.88;5.60;;;;;;;-145.63;37.96;37853.00;5040962;28;20121;-69
2023/08/01 06:55:27;;;;;;;8.18;5.18;;;;;;;-145.63;37.52;37862.78;5023880;28;20083;-70
2023/08/01 06:57:53;;;;;;;7.20;4.60;;;;;;;-145.63;37.34;37878.44;5041039;28;20040;-71
2023/08/01 07:00:18;;;;;;;6.15;4.57;;;;;;;-145.63;36.74;37851.06;5033955;28;20026;-72
2023/08/01 07:02:44;;;;;;;6.80;4.60;;;;;;;-145.63;37.14;37839.31;5032298;28;20268;-70
2023/08/01 07:05:10;;;;;;;5.68;3.95;;;;;;;-145.63;36.29;37815.88;5032901;28;20088;-71
2023/08/01 07:07:35;;;;;;;4.18;3.60;;;;;;;-145.63;36.93;37772.84;5032521;28;20028;-70
2023/08/01 07:10:01;;;;;;;11.65;5.28;;;;;;;-145.63;37.07;37735.72;5032506;28;20021;-70
2023/08/01 07:12:30;;;;;;;6.93;4.68;;;;;;;-145.63;37.44;37772.84;5035048;28;20306;-71
2023/08/01 07:14:56;;;;;;;6.70;3.60;;;;;;;-145.63;34.37;37735.72;5028197;28;20097;-70
2023/08/01 07:17:21;;;;;;;6.35;3.88;;;;;;;-145.63;35.65;37819.78;5028280;28;20052;-69
2023/08/01 07:19:47;;;;;;;4.07;3.58;;;;;;;-145.63;34.91;37788.50;5039860;28;20117;-69
2023/08/01 07:22:12;;;;;;;6.47;3.50;;;;;;;-145.63;35.38;37841.28;5043511;28;20044;-69
2023/08/01 07:24:38;;;;;;;5.78;4.30;;;;;;;-145.63;36.28;37761.13;5027875;28;20028;-69
2023/08/01 07:27:04;;;;;;;5.30;4.53;;;;;;;-145.63;36.63;37737.66;5034074;28;20025;-70
2023/08/01 07:29:30;;;;;;;7.35;4.60;;;;;;;-145.63;36.76;37682.94;5037160;28;20022;-69
2023/08/01 07:31:56;;;;;;;6.93;4.22;;;;;;;-145.63;36.00;37686.84;5040063;28;20044;-69
2023/08/01 07:34:21;;;;;;;6.32;3.88;;;;;;;-145.63;35.71;37694.66;5043286;28;20060;-69
2023/08/01 07:36:48;;;;;;;5.03;3.78;;;;;;;-145.63;36.00;37741.56;5026468;28;20026;-69
2023/08/01 07:39:15;;;;;;;4.10;3.47;;;;;;;-145.63;35.81;37475.72;5034157;28;20025;-69
2023/08/01 07:41:41;;;;;;;7.50;4.43;;;;;;;-145.63;35.64;37667.28;5037339;28;20108;-69
2023/08/01 07:44:06;;;;;;;5.60;4.30;;;;;;;-145.63;35.02;37628.19;5040556;28;20025;-72
2023/08/01 07:46:32;;;;;;;8.57;4.43;;;;;;;-145.63;34.24;37579.31;5023072;28;20060;-69
2023/08/01 07:49:01;;;;;;;5.43;4.00;;;;;;;-145.63;34.01;37675.09;5040871;28;20072;-70
2023/08/01 07:51:27;;;;;;;5.03;3.70;;;;;;;-145.63;33.40;37710.31;5031919;28;20299;-71
2023/08/01 07:53:53;;;;;;;5.07;3.83;;;;;;;-145.63;35.25;37720.06;5030167;28;20022;-70
2023/08/01 07:56:19;;;;;;;7.07;4.32;;;;;;;-145.63;34.25;37665.34;5029813;28;20029;-71
2023/08/01 07:58:45;;;;;;;6.45;4.78;;;;;;;-145.63;33.97;37606.69;5023531;28;20333;-70
2023/08/01 08:01:11;;;;;;;5.05;4.22;;;;;;;-145.63;33.88;37585.19;5031099;28;20037;-70
2023/08/01 08:03:37;;;;;;;7.95;4.10;;;;;;;-145.63;32.74;37659.47;5039750;28;20033;-69
2023/08/01 08:06:04;;;;;;;4.47;4.03;;;;;;;-145.63;34.23;37583.22;5039459;28;20096;-68
2023/08/01 08:08:30;;;;;;;7.63;4.97;;;;;;;-145.63;33.69;37522.63;5036277;28;20024;-68
2023/08/01 08:10:56;;;;;;;10.93;5.03;;;;;;;-145.63;32.94;37516.75;5035178;28;20069;-69
2023/08/01 08:13:21;;;;;;;9.63;5.05;;;;;;;-145.63;32.66;37553.91;5036776;28;20021;-68
2023/08/01 08:15:47;;;;;;;8.60;4.80;;;;;;;-145.63;31.66;37577.38;5034336;28;20030;-68
2023/08/01 08:18:13;;;;;;;5.63;3.95;;;;;;;-145.63;31.57;37542.19;5036865;28;20037;-69
2023/08/01 08:20:44;;;;;;;6.53;3.70;;;;;;;-145.63;31.64;37585.19;5033420;28;20060;-69
2023/08/01 08:23:10;;;;;;;8.50;4.55;;;;;;;-145.63;32.68;37583.22;5036800;28;20049;-68
2023/08/01 08:25:36;;;;;;;6.70;4.32;;;;;;;-145.63;32.17;37616.47;5034520;28;20037;-69
2023/08/01 08:28:03;;;;;;;5.75;4.32;;;;;;;-145.63;32.18;37585.19;5036079;28;20311;-68
2023/08/01 08:30:28;;;;;;;7.95;3.90;;;;;;;-145.63;32.45;37589.09;5034674;28;20067;-68
2023/08/01 08:32:54;;;;;;;6.55;4.07;;;;;;;-145.63;32.83;37565.63;5037939;28;20022;-69
2023/08/01 08:35:20;;;;;;;7.95;4.05;;;;;;;-145.63;32.98;37563.69;5042167;28;20053;-68
2023/08/01 08:37:45;;;;;;;8.05;4.22;;;;;;;-145.63;33.88;37487.44;5026726;28;20040;-69
2023/08/01 08:40:12;;;;;;;6.03;4.95;;;;;;;-145.63;33.25;37454.22;5037223;28;20025;-68
2023/08/01 08:42:39;;;;;;;6.72;4.30;;;;;;;-145.63;34.07;37432.72;5037384;28;20037;-69
2023/08/01 08:45:06;;;;;;;8.95;4.78;;;;;;;-145.63;32.60;37446.38;5034969;28;20036;-71
2023/08/01 08:47:36;;;;;;;8.43;4.72;;;;;;;-145.63;33.52;37364.28;5034536;28;20237;-69
2023/08/01 08:50:03;;;;;;;6.95;4.40;;;;;;;-145.63;33.32;37419.03;5034105;28;20026;-69
2023/08/01 08:52:29;;;;;;;6.00;4.50;;;;;;;-145.63;33.72;37463.97;5031416;28;20057;-69
2023/08/01 08:54:56;;;;;;;6.05;4.20;;;;;;;-145.63;32.79;37479.63;5033969;28;20028;-70
2023/08/01 08:57:22;;;;;;;6.97;4.45;;;;;;;-145.63;33.33;37487.44;5035869;28;20317;-68
2023/08/01 08:59:49;;;;;;;8.43;4.70;;;;;;;-145.63;33.68;37522.63;5028805;28;20033;-70
2023/08/01 09:02:16;;;;;;;8.38;4.70;;;;;;;-145.63;34.02;37424.88;5028709;28;20029;-72
2023/08/01 09:04:42;;;;;;;8.38;4.53;;;;;;;-145.63;33.74;37491.34;5039775;28;20076;-67
2023/08/01 09:07:11;;;;;;;5.32;4.35;;;;;;;-145.63;33.60;37516.75;5036299;28;20049;-68
2023/08/01 09:09:37;;;;;;;5.72;5.20;;;;;;;-145.63;34.62;37575.41;5027235;28;20187;-68
2023/08/01 09:12:03;;;;;;;6.55;5.05;;;;;;;-145.63;34.10;37534.34;5034238;28;20037;-68
2023/08/01 09:14:29;;;;;;;8.27;4.50;;;;;;;-145.63;33.31;37497.22;5030943;28;20022;-67
2023/08/01 09:16:55;;;;;;;5.78;4.45;;;;;;;-145.63;33.74;37514.81;5034712;28;20028;-67
2023/08/01 09:19:23;;;;;;;5.72;4.40;;;;;;;-145.63;33.97;37596.91;5043839;28;20075;-68
2023/08/01 09:21:50;;;;;;;6.32;4.07;;;;;;;-145.63;34.50;37575.41;5029391;28;20238;-67
2023/08/01 09:24:20;;;;;;;9.73;4.65;;;;;;;-145.63;34.46;37598.88;5035326;28;20226;-68
2023/08/01 09:26:48;;;;;;;6.57;4.10;;;;;;;-145.63;34.49;37594.97;5044947;28;20045;-67
2023/08/01 09:29:16;;;;;;;5.63;4.55;;;;;;;-145.63;34.19;37440.53;5042231;28;20032;-68
2023/08/01 09:31:43;;;;;;;6.25;3.92;;;;;;;-145.63;34.80;37589.09;5032751;28;20022;-68
2023/08/01 09:34:23;;;;;;;6.13;4.28;;;;;;;-145.63;33.77;37585.19;5043794;28;20036;-68
2023/08/01 09:36:50;;;;;;;8.30;4.72;;;;;;;-145.63;34.28;37565.63;5029210;28;20658;-68
2023/08/01 09:39:18;;;;;;;8.48;4.95;;;;;;;-145.63;33.36;37550.00;5035970;28;20314;-68
2023/08/01 09:41:44;;;;;;;10.07;7.45;;;;;;;-145.63;32.87;37565.63;5034101;28;20357;-68
2023/08/01 09:44:16;;;;;;;9.82;7.28;;;;;;;-145.63;33.94;37471.81;5033651;28;20022;-68
2023/08/01 09:46:43;;;;;;;6.40;4.70;;;;;;;-145.63;31.86;37452.25;5024747;28;20316;-68
2023/08/01 09:49:12;;;;;;;5.55;5.03;;;;;;;-145.63;32.40;37368.19;5041592;28;20092;-68
2023/08/01 09:51:48;;;;;;;5.80;4.03;;;;;;;-145.63;31.32;37397.53;5030567;28;20033;-67
2023/08/01 09:54:15;;;;;;;8.05;4.38;;;;;;;-145.63;31.47;36996.81;5024630;28;20030;-68
2023/08/01 09:56:45;;;;;;;6.45;4.40;;;;;;;-145.63;30.99;36936.22;5027944;28;20289;-69
2023/08/01 09:59:11;;;;;;;5.95;4.40;;;;;;;-145.63;32.05;37475.72;5031275;28;20354;-69
2023/08/01 10:01:40;;;;;;;5.65;4.70;;;;;;;-145.63;33.18;37456.16;5035266;28;20088;-68
2023/08/01 10:04:08;;;;;;;7.72;5.10;;;;;;;-145.63;32.83;37479.63;5035388;28;20034;-68
2023/08/01 10:06:38;;;;;;;7.03;4.85;;;;;;;-145.63;32.49;37510.91;5031101;28;20045;-69
2023/08/01 10:09:04;;;;;;;6.30;5.35;;;;;;;-145.63;32.88;37430.75;5032624;28;20029;-68
2023/08/01 10:11:33;;;;;;;8.77;4.97;;;;;;;-145.63;32.31;37450.31;5030841;28;20033;-67
2023/08/01 10:14:02;;;;;;;5.68;4.25;;;;;;;-145.63;32.36;37440.53;5029871;28;20057;-69
2023/08/01 10:16:28;;;;;;;6.00;4.95;;;;;;;-145.63;32.63;37512.84;5031780;28;20029;-68
2023/08/01 10:18:54;;;;;;;8.63;5.38;;;;;;;-145.63;33.85;37434.66;5028531;28;20025;-68
2023/08/01 10:21:21;;;;;;;7.07;4.68;;;;;;;-145.63;34.23;37419.03;5032640;28;20029;-68
2023/08/01 10:23:48;;;;;;;11.48;3.70;;;;;;;-145.63;33.10;37419.03;5037279;28;20102;-68
2023/08/01 10:26:14;;;;;;;4.78;4.38;;;;;;;-145.63;32.96;37432.72;5041708;28;20029;-69
2023/08/01 10:28:48;;;;;;;6.00;4.43;;;;;;;-145.63;33.10;37436.63;5023977;28;20026;-68
2023/08/01 10:31:16;;;;;;;5.55;4.25;;;;;;;-145.63;33.55;37403.38;5023928;28;20036;-69
2023/08/01 10:33:46;;;;;;;11.15;6.88;;;;;;;-145.63;32.99;37465.94;5037699;28;20432;-68
2023/08/01 10:36:20;;;;;;;6.45;5.00;;;;;;;-145.63;33.14;37426.84;5039255;28;20864;-68
2023/08/01 10:38:49;;;;;;;5.90;4.57;;;;;;;-145.63;32.51;37463.97;5031308;28;20093;-68
2023/08/01 10:41:33;;;;;;;4.78;4.25;;;;;;;-145.63;33.30;37489.41;5031061;28;20047;-68
2023/08/01 10:44:15;;;;;;;6.90;5.35;;;;;;;-145.63;32.53;37454.22;5031076;28;20084;-68
2023/08/01 10:46:55;;;;;;;9.63;5.53;;;;;;;-145.63;33.10;37458.13;5029144;28;20041;-68
2023/08/01 10:49:34;;;;;;;7.40;5.38;;;;;;;-145.63;34.00;37491.34;5034506;28;20087;-69
2023/08/01 10:52:00;;;;;;;9.52;7.57;;;;;;;-145.63;34.62;37434.66;5032695;28;20025;-69
2023/08/01 10:54:26;;;;;;;6.03;4.75;;;;;;;-145.63;32.34;37395.56;5033471;28;20017;-68
2023/08/01 10:56:58;;;;;;;6.10;5.05;;;;;;;-145.63;33.92;37366.25;5034356;28;20666;-68
2023/08/01 10:59:24;;;;;;;6.05;4.45;;;;;;;-145.63;33.37;37377.97;5032601;28;20083;-68
2023/08/01 11:01:54;;;;;;;5.95;4.40;;;;;;;-145.63;32.23;37123.84;5028393;28;20366;-69
2023/08/01 11:04:21;;;;;;;6.85;5.50;;;;;;;-145.63;32.20;37424.88;5030218;28;20045;-73
2023/08/01 11:06:53;;;;;;;7.68;4.20;;;;;;;-145.63;31.66;37397.53;5033882;28;20328;-70
2023/08/01 11:09:20;;;;;;;;;;;;;;;-145.63;32.08;37348.66;5034653;28;20056;-71